sensor_id;sensor_type;location;lat;lon;timestamp;temperature;humidity
12845;DHT22;68700;48.534;9.196;2023-08-01T00:02:14;18.10;1.00
12845;DHT22;68700;48.534;9.196;2023-08-01T00:05:36;18.00;1.00
12845;DHT22;68700;48.534;9.196;2023-08-01T00:08:58;18.00;1.00
12845;DHT22;68700;48.534;9.196;2023-08-01T00:12:21;18.00;1.00
12845;DHT22;68700;48.534;9.196;2023-08-01T00:15:43;18.10;1.00
12845;DHT22;68700;48.534;9.196;2023-08-01T00:19:05;18.10;1.00
12845;DHT22;68700;48.534;9.196;2023-08-01T00:22:27;18.00;1.00
12845;DHT22;68700;48.534;9.196;2023-08-01T00:25:48;17.90;1.00
12845;DHT22;68700;48.534;9.196;2023-08-01T00:29:13;17.90;1.00
12845;DHT22;68700;48.534;9.196;2023-08-01T00:32:35;17.90;1.00
12845;DHT22;68700;48.534;9.196;2023-08-01T00:35:57;17.90;1.00
12845;DHT22;68700;48.534;9.196;2023-08-01T00:39:18;17.80;1.00
12845;DHT22;68700;48.534;9.196;2023-08-01T00:42:40;17.90;1.00
12845;DHT22;68700;48.534;9.196;2023-08-01T00:46:05;17.80;1.00
12845;DHT22;68700;48.534;9.196;2023-08-01T00:49:27;17.90;1.00
12845;DHT22;68700;48.534;9.196;2023-08-01T00:52:50;18.00;1.00
12845;DHT22;68700;48.534;9.196;2023-08-01T00:56:13;18.00;1.00
12845;DHT22;68700;48.534;9.196;2023-08-01T00:59:35;18.10;1.00
12845;DHT22;68700;48.534;9.196;2023-08-01T01:02:58;18.20;1.00
12845;DHT22;68700;48.534;9.196;2023-08-01T01:06:22;18.40;1.00
12845;DHT22;68700;48.534;9.196;2023-08-01T01:09:45;18.60;1.00
12845;DHT22;68700;48.534;9.196;2023-08-01T01:13:07;18.70;1.00
12845;DHT22;68700;48.534;9.196;2023-08-01T01:16:29;18.80;1.00
12845;DHT22;68700;48.534;9.196;2023-08-01T01:19:52;18.90;1.00
12845;DHT22;68700;48.534;9.196;2023-08-01T01:23:16;19.00;1.00
12845;DHT22;68700;48.534;9.196;2023-08-01T01:26:40;19.10;1.00
12845;DHT22;68700;48.534;9.196;2023-08-01T01:30:03;19.30;1.00
12845;DHT22;68700;48.534;9.196;2023-08-01T01:33:26;19.40;1.00
12845;DHT22;68700;48.534;9.196;2023-08-01T01:36:48;19.50;1.00
12845;DHT22;68700;48.534;9.196;2023-08-01T01:40:11;19.40;1.00
12845;DHT22;68700;48.534;9.196;2023-08-01T01:43:33;19.20;1.00
12845;DHT22;68700;48.534;9.196;2023-08-01T01:46:55;19.10;1.00
12845;DHT22;68700;48.534;9.196;2023-08-01T01:50:16;19.20;1.00
12845;DHT22;68700;48.534;9.196;2023-08-01T01:53:39;19.10;1.00
12845;DHT22;68700;48.534;9.196;2023-08-01T01:57:02;19.20;1.00
12845;DHT22;68700;48.534;9.196;2023-08-01T02:00:24;19.20;1.00
12845;DHT22;68700;48.534;9.196;2023-08-01T02:03:45;19.20;1.00
12845;DHT22;68700;48.534;9.196;2023-08-01T02:07:07;19.30;1.00
12845;DHT22;68700;48.534;9.196;2023-08-01T02:10:29;19.30;1.00
12845;DHT22;68700;48.534;9.196;2023-08-01T02:13:52;19.30;1.00
12845;DHT22;68700;48.534;9.196;2023-08-01T02:17:14;19.30;1.00
12845;DHT22;68700;48.534;9.196;2023-08-01T02:20:36;19.30;1.00
12845;DHT22;68700;48.534;9.196;2023-08-01T02:23:58;19.30;1.00
12845;DHT22;68700;48.534;9.196;2023-08-01T02:27:20;19.40;1.00
12845;DHT22;68700;48.534;9.196;2023-08-01T02:30:43;19.40;1.00
12845;DHT22;68700;48.534;9.196;2023-08-01T02:34:05;19.50;1.00
12845;DHT22;68700;48.534;9.196;2023-08-01T02:37:27;19.60;1.00
12845;DHT22;68700;48.534;9.196;2023-08-01T02:40:49;19.70;1.00
12845;DHT22;68700;48.534;9.196;2023-08-01T02:44:10;19.80;1.00
12845;DHT22;68700;48.534;9.196;2023-08-01T02:47:34;19.80;1.00
12845;DHT22;68700;48.534;9.196;2023-08-01T02:50:56;19.80;1.00
12845;DHT22;68700;48.534;9.196;2023-08-01T02:54:18;19.90;1.00
12845;DHT22;68700;48.534;9.196;2023-08-01T02:57:40;19.90;1.00
12845;DHT22;68700;48.534;9.196;2023-08-01T03:01:05;19.90;1.00
12845;DHT22;68700;48.534;9.196;2023-08-01T03:04:28;19.90;1.00
12845;DHT22;68700;48.534;9.196;2023-08-01T03:07:50;19.90;1.00
12845;DHT22;68700;48.534;9.196;2023-08-01T03:11:12;19.90;1.00
12845;DHT22;68700;48.534;9.196;2023-08-01T03:14:34;19.80;1.00
12845;DHT22;68700;48.534;9.196;2023-08-01T03:17:56;19.90;1.00
12845;DHT22;68700;48.534;9.196;2023-08-01T03:21:20;19.90;1.00
12845;DHT22;68700;48.534;9.196;2023-08-01T03:24:41;19.80;1.00
12845;DHT22;68700;48.534;9.196;2023-08-01T03:28:04;19.90;1.00
12845;DHT22;68700;48.534;9.196;2023-08-01T03:31:26;19.80;1.00
12845;DHT22;68700;48.534;9.196;2023-08-01T03:34:48;19.90;1.00
12845;DHT22;68700;48.534;9.196;2023-08-01T03:38:12;19.80;1.00
12845;DHT22;68700;48.534;9.196;2023-08-01T03:41:33;19.80;1.00
12845;DHT22;68700;48.534;9.196;2023-08-01T03:44:55;19.80;1.00
12845;DHT22;68700;48.534;9.196;2023-08-01T03:48:17;19.70;1.00
12845;DHT22;68700;48.534;9.196;2023-08-01T03:51:39;19.70;1.00
12845;DHT22;68700;48.534;9.196;2023-08-01T03:55:02;19.70;1.00
12845;DHT22;68700;48.534;9.196;2023-08-01T03:58:24;19.70;1.00
12845;DHT22;68700;48.534;9.196;2023-08-01T04:01:46;19.60;1.00
12845;DHT22;68700;48.534;9.196;2023-08-01T04:05:08;19.60;1.00
12845;DHT22;68700;48.534;9.196;2023-08-01T04:08:30;19.60;1.00
12845;DHT22;68700;48.534;9.196;2023-08-01T04:11:53;19.60;1.00
12845;DHT22;68700;48.534;9.196;2023-08-01T04:15:15;19.60;1.00
12845;DHT22;68700;48.534;9.196;2023-08-01T04:18:37;19.50;1.00
12845;DHT22;68700;48.534;9.196;2023-08-01T04:21:59;19.60;1.00
12845;DHT22;68700;48.534;9.196;2023-08-01T04:25:20;19.60;1.00
12845;DHT22;68700;48.534;9.196;2023-08-01T04:28:47;19.60;1.00
12845;DHT22;68700;48.534;9.196;2023-08-01T04:32:08;19.60;1.00
12845;DHT22;68700;48.534;9.196;2023-08-01T04:35:33;19.50;1.00
12845;DHT22;68700;48.534;9.196;2023-08-01T04:38:55;19.60;1.00
12845;DHT22;68700;48.534;9.196;2023-08-01T04:42:16;19.60;1.00
12845;DHT22;68700;48.534;9.196;2023-08-01T04:45:40;19.70;1.00
12845;DHT22;68700;48.534;9.196;2023-08-01T04:49:01;19.70;1.00
12845;DHT22;68700;48.534;9.196;2023-08-01T04:52:23;19.70;1.00
12845;DHT22;68700;48.534;9.196;2023-08-01T04:55:45;19.60;1.00
12845;DHT22;68700;48.534;9.196;2023-08-01T04:59:07;19.60;1.00
12845;DHT22;68700;48.534;9.196;2023-08-01T05:02:30;19.50;1.00
12845;DHT22;68700;48.534;9.196;2023-08-01T05:05:52;19.40;1.00
12845;DHT22;68700;48.534;9.196;2023-08-01T05:09:13;19.50;1.00
12845;DHT22;68700;48.534;9.196;2023-08-01T05:12:35;19.60;1.00
12845;DHT22;68700;48.534;9.196;2023-08-01T05:15:57;19.70;1.00
12845;DHT22;68700;48.534;9.196;2023-08-01T05:19:20;19.70;1.00
12845;DHT22;68700;48.534;9.196;2023-08-01T05:22:42;19.80;1.00
12845;DHT22;68700;48.534;9.196;2023-08-01T05:26:04;19.90;1.00
12845;DHT22;68700;48.534;9.196;2023-08-01T05:29:25;20.00;1.00
12845;DHT22;68700;48.534;9.196;2023-08-01T05:32:47;20.00;1.00
12845;DHT22;68700;48.534;9.196;2023-08-01T05:36:10;20.10;1.00
12845;DHT22;68700;48.534;9.196;2023-08-01T05:39:32;20.00;1.00
12845;DHT22;68700;48.534;9.196;2023-08-01T05:42:56;20.10;1.00
12845;DHT22;68700;48.534;9.196;2023-08-01T05:46:18;20.10;1.00
12845;DHT22;68700;48.534;9.196;2023-08-01T05:49:42;20.20;1.00
12845;DHT22;68700;48.534;9.196;2023-08-01T05:53:05;20.20;1.00
12845;DHT22;68700;48.534;9.196;2023-08-01T05:56:28;20.30;1.00
12845;DHT22;68700;48.534;9.196;2023-08-01T05:59:50;20.30;1.00
12845;DHT22;68700;48.534;9.196;2023-08-01T06:03:11;20.30;1.00
12845;DHT22;68700;48.534;9.196;2023-08-01T06:06:33;20.40;1.00
12845;DHT22;68700;48.534;9.196;2023-08-01T06:09:57;20.40;1.00
12845;DHT22;68700;48.534;9.196;2023-08-01T06:13:18;20.20;1.00
12845;DHT22;68700;48.534;9.196;2023-08-01T06:16:40;20.20;1.00
12845;DHT22;68700;48.534;9.196;2023-08-01T06:20:02;20.10;1.00
12845;DHT22;68700;48.534;9.196;2023-08-01T06:23:25;20.00;1.00
12845;DHT22;68700;48.534;9.196;2023-08-01T06:26:48;19.90;1.00
12845;DHT22;68700;48.534;9.196;2023-08-01T06:30:11;19.90;1.00
12845;DHT22;68700;48.534;9.196;2023-08-01T06:33:33;19.90;1.00
12845;DHT22;68700;48.534;9.196;2023-08-01T06:36:55;19.80;1.00
12845;DHT22;68700;48.534;9.196;2023-08-01T06:40:16;19.80;1.00
12845;DHT22;68700;48.534;9.196;2023-08-01T06:43:40;19.70;1.00
12845;DHT22;68700;48.534;9.196;2023-08-01T06:47:01;19.70;1.00
12845;DHT22;68700;48.534;9.196;2023-08-01T06:50:23;19.80;1.00
12845;DHT22;68700;48.534;9.196;2023-08-01T06:53:45;19.70;1.00
12845;DHT22;68700;48.534;9.196;2023-08-01T06:57:07;19.60;1.00
12845;DHT22;68700;48.534;9.196;2023-08-01T07:00:30;19.70;1.00
12845;DHT22;68700;48.534;9.196;2023-08-01T07:03:52;19.60;1.00
12845;DHT22;68700;48.534;9.196;2023-08-01T07:07:14;19.70;1.00
12845;DHT22;68700;48.534;9.196;2023-08-01T07:10:36;19.70;1.00
12845;DHT22;68700;48.534;9.196;2023-08-01T07:13:58;19.70;1.00
12845;DHT22;68700;48.534;9.196;2023-08-01T07:17:21;19.70;1.00
12845;DHT22;68700;48.534;9.196;2023-08-01T07:20:43;19.70;1.00
12845;DHT22;68700;48.534;9.196;2023-08-01T07:24:05;19.70;1.00
12845;DHT22;68700;48.534;9.196;2023-08-01T07:27:27;19.80;1.00
12845;DHT22;68700;48.534;9.196;2023-08-01T07:30:48;19.90;1.00
12845;DHT22;68700;48.534;9.196;2023-08-01T07:34:20;20.00;1.00
12845;DHT22;68700;48.534;9.196;2023-08-01T07:37:42;20.20;1.00
12845;DHT22;68700;48.534;9.196;2023-08-01T07:41:04;20.10;1.00
12845;DHT22;68700;48.534;9.196;2023-08-01T07:44:27;20.10;1.00
12845;DHT22;68700;48.534;9.196;2023-08-01T07:47:49;20.10;1.00
12845;DHT22;68700;48.534;9.196;2023-08-01T07:51:12;20.10;1.00
12845;DHT22;68700;48.534;9.196;2023-08-01T07:54:35;19.90;1.00
12845;DHT22;68700;48.534;9.196;2023-08-01T07:57:56;19.80;1.00
12845;DHT22;68700;48.534;9.196;2023-08-01T08:01:18;19.70;1.00
12845;DHT22;68700;48.534;9.196;2023-08-01T08:04:40;19.50;1.00
12845;DHT22;68700;48.534;9.196;2023-08-01T08:08:04;19.10;1.00
12845;DHT22;68700;48.534;9.196;2023-08-01T08:11:25;18.70;1.00
12845;DHT22;68700;48.534;9.196;2023-08-01T08:14:47;18.60;1.00
12845;DHT22;68700;48.534;9.196;2023-08-01T08:18:09;18.40;1.00
12845;DHT22;68700;48.534;9.196;2023-08-01T08:21:31;18.10;1.00
12845;DHT22;68700;48.534;9.196;2023-08-01T08:24:54;17.80;1.00
12845;DHT22;68700;48.534;9.196;2023-08-01T08:28:26;17.70;4.10
12845;DHT22;68700;48.534;9.196;2023-08-01T08:31:48;17.60;29.90
12845;DHT22;68700;48.534;9.196;2023-08-01T08:35:10;17.70;48.00
12845;DHT22;68700;48.534;9.196;2023-08-01T08:38:32;17.80;45.50
12845;DHT22;68700;48.534;9.196;2023-08-01T08:41:55;17.80;59.60
12845;DHT22;68700;48.534;9.196;2023-08-01T08:45:19;17.80;68.70
12845;DHT22;68700;48.534;9.196;2023-08-01T08:48:41;17.80;70.10
12845;DHT22;68700;48.534;9.196;2023-08-01T08:52:05;17.70;99.90
12845;DHT22;68700;48.534;9.196;2023-08-01T08:55:27;17.70;99.90
12845;DHT22;68700;48.534;9.196;2023-08-01T08:58:51;17.70;99.90
12845;DHT22;68700;48.534;9.196;2023-08-01T09:02:14;17.70;99.90
12845;DHT22;68700;48.534;9.196;2023-08-01T09:05:40;17.70;99.90
12845;DHT22;68700;48.534;9.196;2023-08-01T09:09:10;17.60;99.90
12845;DHT22;68700;48.534;9.196;2023-08-01T09:12:34;17.70;99.90
12845;DHT22;68700;48.534;9.196;2023-08-01T09:15:57;17.80;99.90
12845;DHT22;68700;48.534;9.196;2023-08-01T09:19:21;18.00;99.90
12845;DHT22;68700;48.534;9.196;2023-08-01T09:22:46;17.90;99.90
12845;DHT22;68700;48.534;9.196;2023-08-01T09:26:12;18.00;99.90
12845;DHT22;68700;48.534;9.196;2023-08-01T09:30:04;18.10;99.90
12845;DHT22;68700;48.534;9.196;2023-08-01T09:33:38;18.60;99.90
12845;DHT22;68700;48.534;9.196;2023-08-01T09:37:00;19.10;26.30
12845;DHT22;68700;48.534;9.196;2023-08-01T09:40:22;19.30;1.00
12845;DHT22;68700;48.534;9.196;2023-08-01T09:43:45;19.30;1.60
12845;DHT22;68700;48.534;9.196;2023-08-01T09:47:07;19.30;3.90
12845;DHT22;68700;48.534;9.196;2023-08-01T09:50:30;19.20;12.20
12845;DHT22;68700;48.534;9.196;2023-08-01T09:53:54;19.00;20.30
12845;DHT22;68700;48.534;9.196;2023-08-01T09:57:16;18.90;1.00
12845;DHT22;68700;48.534;9.196;2023-08-01T10:00:38;19.10;11.70
12845;DHT22;68700;48.534;9.196;2023-08-01T10:04:00;19.20;1.00
12845;DHT22;68700;48.534;9.196;2023-08-01T10:07:26;19.00;9.70
12845;DHT22;68700;48.534;9.196;2023-08-01T10:10:51;18.80;52.60
12845;DHT22;68700;48.534;9.196;2023-08-01T10:14:17;18.80;34.00
12845;DHT22;68700;48.534;9.196;2023-08-01T10:17:41;18.70;42.50
12845;DHT22;68700;48.534;9.196;2023-08-01T10:21:04;18.30;99.90
12845;DHT22;68700;48.534;9.196;2023-08-01T10:24:28;18.20;99.90
12845;DHT22;68700;48.534;9.196;2023-08-01T10:27:58;18.00;99.90
12845;DHT22;68700;48.534;9.196;2023-08-01T10:31:20;17.90;99.90
12845;DHT22;68700;48.534;9.196;2023-08-01T10:34:50;17.70;99.90
12845;DHT22;68700;48.534;9.196;2023-08-01T10:38:12;17.80;99.90
12845;DHT22;68700;48.534;9.196;2023-08-01T10:41:36;17.70;99.90
12845;DHT22;68700;48.534;9.196;2023-08-01T10:44:58;18.00;99.90
12845;DHT22;68700;48.534;9.196;2023-08-01T10:48:20;18.40;99.90
12845;DHT22;68700;48.534;9.196;2023-08-01T10:51:41;19.30;99.90
12845;DHT22;68700;48.534;9.196;2023-08-01T10:55:04;20.50;39.60
12845;DHT22;68700;48.534;9.196;2023-08-01T10:58:28;22.60;1.00
12845;DHT22;68700;48.534;9.196;2023-08-01T11:01:52;22.70;1.00
12845;DHT22;68700;48.534;9.196;2023-08-01T11:05:14;22.60;1.00
12845;DHT22;68700;48.534;9.196;2023-08-01T11:08:36;21.60;1.00
12845;DHT22;68700;48.534;9.196;2023-08-01T11:11:59;21.00;1.00
12845;DHT22;68700;48.534;9.196;2023-08-01T11:15:23;21.00;1.00
12845;DHT22;68700;48.534;9.196;2023-08-01T11:18:45;20.80;1.00
12845;DHT22;68700;48.534;9.196;2023-08-01T11:22:09;21.00;1.00
12845;DHT22;68700;48.534;9.196;2023-08-01T11:25:33;21.20;1.00
12845;DHT22;68700;48.534;9.196;2023-08-01T11:28:55;22.10;1.00
12845;DHT22;68700;48.534;9.196;2023-08-01T11:36:35;23.40;1.00
12845;DHT22;68700;48.534;9.196;2023-08-01T11:39:59;22.80;1.00
12845;DHT22;68700;48.534;9.196;2023-08-01T11:43:21;22.40;1.00
12845;DHT22;68700;48.534;9.196;2023-08-01T11:46:43;21.60;1.00
12845;DHT22;68700;48.534;9.196;2023-08-01T11:50:06;21.40;1.00
12845;DHT22;68700;48.534;9.196;2023-08-01T11:53:30;21.70;1.00
12845;DHT22;68700;48.534;9.196;2023-08-01T11:57:00;22.20;1.00
12845;DHT22;68700;48.534;9.196;2023-08-01T12:00:23;22.60;1.00
12845;DHT22;68700;48.534;9.196;2023-08-01T12:03:47;23.30;1.00
12845;DHT22;68700;48.534;9.196;2023-08-01T12:07:12;23.80;1.00
12845;DHT22;68700;48.534;9.196;2023-08-01T12:10:40;24.10;1.00
12845;DHT22;68700;48.534;9.196;2023-08-01T12:14:03;24.40;1.00
12845;DHT22;68700;48.534;9.196;2023-08-01T12:17:26;23.40;1.00
12845;DHT22;68700;48.534;9.196;2023-08-01T12:20:47;23.70;1.00
12845;DHT22;68700;48.534;9.196;2023-08-01T12:28:27;25.70;1.00
12845;DHT22;68700;48.534;9.196;2023-08-01T12:31:49;24.40;1.00
12845;DHT22;68700;48.534;9.196;2023-08-01T12:35:13;23.80;1.00
12845;DHT22;68700;48.534;9.196;2023-08-01T12:38:38;23.60;1.00
12845;DHT22;68700;48.534;9.196;2023-08-01T12:42:00;24.70;1.00
12845;DHT22;68700;48.534;9.196;2023-08-01T12:45:23;25.50;1.00
12845;DHT22;68700;48.534;9.196;2023-08-01T12:48:45;25.90;1.00
12845;DHT22;68700;48.534;9.196;2023-08-01T12:52:07;25.10;1.00
12845;DHT22;68700;48.534;9.196;2023-08-01T12:55:29;25.00;1.00
12845;DHT22;68700;48.534;9.196;2023-08-01T12:58:50;23.90;1.00
12845;DHT22;68700;48.534;9.196;2023-08-01T13:02:14;23.90;1.00
12845;DHT22;68700;48.534;9.196;2023-08-01T13:05:37;23.40;1.00
12845;DHT22;68700;48.534;9.196;2023-08-01T13:08:59;23.50;1.00
12845;DHT22;68700;48.534;9.196;2023-08-01T13:12:21;24.20;1.00
12845;DHT22;68700;48.534;9.196;2023-08-01T13:15:42;24.60;1.00
12845;DHT22;68700;48.534;9.196;2023-08-01T13:19:06;24.80;1.00
12845;DHT22;68700;48.534;9.196;2023-08-01T13:22:27;25.60;1.00
12845;DHT22;68700;48.534;9.196;2023-08-01T13:25:49;25.60;1.00
12845;DHT22;68700;48.534;9.196;2023-08-01T13:29:11;26.50;99.90
12845;DHT22;68700;48.534;9.196;2023-08-01T13:32:33;25.80;99.90
12845;DHT22;68700;48.534;9.196;2023-08-01T13:35:56;25.70;99.90
12845;DHT22;68700;48.534;9.196;2023-08-01T13:39:19;25.90;99.90
12845;DHT22;68700;48.534;9.196;2023-08-01T13:42:41;27.00;99.90
12845;DHT22;68700;48.534;9.196;2023-08-01T13:46:11;26.80;99.90
12845;DHT22;68700;48.534;9.196;2023-08-01T13:49:33;26.10;99.90
12845;DHT22;68700;48.534;9.196;2023-08-01T13:52:56;26.00;99.90
12845;DHT22;68700;48.534;9.196;2023-08-01T13:56:18;25.60;99.90
12845;DHT22;68700;48.534;9.196;2023-08-01T13:59:42;26.10;99.90
12845;DHT22;68700;48.534;9.196;2023-08-01T14:03:04;27.40;99.90
12845;DHT22;68700;48.534;9.196;2023-08-01T14:06:25;27.10;99.90
12845;DHT22;68700;48.534;9.196;2023-08-01T14:09:49;28.20;99.90
12845;DHT22;68700;48.534;9.196;2023-08-01T14:13:11;25.60;99.90
12845;DHT22;68700;48.534;9.196;2023-08-01T14:16:33;26.50;99.90
12845;DHT22;68700;48.534;9.196;2023-08-01T14:19:55;27.20;99.90
12845;DHT22;68700;48.534;9.196;2023-08-01T14:23:18;26.00;99.90
12845;DHT22;68700;48.534;9.196;2023-08-01T14:26:41;24.80;99.90
12845;DHT22;68700;48.534;9.196;2023-08-01T14:30:03;25.40;99.90
12845;DHT22;68700;48.534;9.196;2023-08-01T14:33:26;24.90;99.90
12845;DHT22;68700;48.534;9.196;2023-08-01T14:36:48;25.50;99.90
12845;DHT22;68700;48.534;9.196;2023-08-01T14:40:10;25.90;99.90
12845;DHT22;68700;48.534;9.196;2023-08-01T14:43:34;25.60;99.90
12845;DHT22;68700;48.534;9.196;2023-08-01T14:46:55;25.90;99.90
12845;DHT22;68700;48.534;9.196;2023-08-01T14:50:17;24.90;99.90
12845;DHT22;68700;48.534;9.196;2023-08-01T14:53:39;25.70;99.90
12845;DHT22;68700;48.534;9.196;2023-08-01T14:57:01;25.00;99.90
12845;DHT22;68700;48.534;9.196;2023-08-01T15:00:24;25.20;99.90
12845;DHT22;68700;48.534;9.196;2023-08-01T15:03:46;25.20;99.90
12845;DHT22;68700;48.534;9.196;2023-08-01T15:07:08;25.50;99.90
12845;DHT22;68700;48.534;9.196;2023-08-01T15:10:29;24.10;99.90
12845;DHT22;68700;48.534;9.196;2023-08-01T15:13:51;23.80;99.90
12845;DHT22;68700;48.534;9.196;2023-08-01T15:17:14;23.80;99.90
12845;DHT22;68700;48.534;9.196;2023-08-01T15:20:36;23.70;99.90
12845;DHT22;68700;48.534;9.196;2023-08-01T15:24:01;23.80;99.90
12845;DHT22;68700;48.534;9.196;2023-08-01T15:27:23;23.70;99.90
12845;DHT22;68700;48.534;9.196;2023-08-01T15:30:45;24.20;99.90
12845;DHT22;68700;48.534;9.196;2023-08-01T15:34:08;24.10;99.90
12845;DHT22;68700;48.534;9.196;2023-08-01T15:37:29;23.90;99.90
12845;DHT22;68700;48.534;9.196;2023-08-01T15:40:51;23.50;99.90
12845;DHT22;68700;48.534;9.196;2023-08-01T15:44:14;23.10;99.90
12845;DHT22;68700;48.534;9.196;2023-08-01T15:47:37;23.10;99.90
12845;DHT22;68700;48.534;9.196;2023-08-01T15:51:02;23.20;99.90
12845;DHT22;68700;48.534;9.196;2023-08-01T15:54:24;23.10;1.40
12845;DHT22;68700;48.534;9.196;2023-08-01T15:57:46;23.20;99.90
12845;DHT22;68700;48.534;9.196;2023-08-01T16:01:08;24.00;99.90
12845;DHT22;68700;48.534;9.196;2023-08-01T16:04:30;24.00;99.90
12845;DHT22;68700;48.534;9.196;2023-08-01T16:07:53;24.00;99.90
12845;DHT22;68700;48.534;9.196;2023-08-01T16:11:15;23.50;99.90
12845;DHT22;68700;48.534;9.196;2023-08-01T16:14:38;24.10;99.90
12845;DHT22;68700;48.534;9.196;2023-08-01T16:17:59;23.80;99.90
12845;DHT22;68700;48.534;9.196;2023-08-01T16:21:21;23.90;99.90
12845;DHT22;68700;48.534;9.196;2023-08-01T16:24:44;23.50;99.90
12845;DHT22;68700;48.534;9.196;2023-08-01T16:28:06;23.30;99.90
12845;DHT22;68700;48.534;9.196;2023-08-01T16:31:28;23.20;99.90
12845;DHT22;68700;48.534;9.196;2023-08-01T16:34:50;22.80;99.90
12845;DHT22;68700;48.534;9.196;2023-08-01T16:38:12;22.90;99.90
12845;DHT22;68700;48.534;9.196;2023-08-01T16:41:35;22.70;99.90
12845;DHT22;68700;48.534;9.196;2023-08-01T16:44:57;22.50;99.90
12845;DHT22;68700;48.534;9.196;2023-08-01T16:48:19;22.70;99.90
12845;DHT22;68700;48.534;9.196;2023-08-01T16:51:41;22.60;99.90
12845;DHT22;68700;48.534;9.196;2023-08-01T16:55:03;22.00;99.90
12845;DHT22;68700;48.534;9.196;2023-08-01T16:58:27;21.90;99.90
12845;DHT22;68700;48.534;9.196;2023-08-01T17:01:48;21.90;99.90
12845;DHT22;68700;48.534;9.196;2023-08-01T17:05:10;21.80;1.00
12845;DHT22;68700;48.534;9.196;2023-08-01T17:08:33;21.70;99.90
12845;DHT22;68700;48.534;9.196;2023-08-01T17:11:56;21.50;1.00
12845;DHT22;68700;48.534;9.196;2023-08-01T17:15:19;21.40;1.00
12845;DHT22;68700;48.534;9.196;2023-08-01T17:18:41;21.80;99.90
12845;DHT22;68700;48.534;9.196;2023-08-01T17:22:04;22.00;99.90
12845;DHT22;68700;48.534;9.196;2023-08-01T17:25:26;22.10;99.90
12845;DHT22;68700;48.534;9.196;2023-08-01T17:28:47;22.00;99.90
12845;DHT22;68700;48.534;9.196;2023-08-01T17:32:11;22.10;99.90
12845;DHT22;68700;48.534;9.196;2023-08-01T17:35:32;22.00;99.90
12845;DHT22;68700;48.534;9.196;2023-08-01T17:38:54;21.60;99.90
12845;DHT22;68700;48.534;9.196;2023-08-01T17:42:16;21.50;99.90
12845;DHT22;68700;48.534;9.196;2023-08-01T17:45:38;21.40;99.90
12845;DHT22;68700;48.534;9.196;2023-08-01T17:49:01;21.30;99.90
12845;DHT22;68700;48.534;9.196;2023-08-01T17:52:24;21.20;99.90
12845;DHT22;68700;48.534;9.196;2023-08-01T17:55:46;21.10;99.90
12845;DHT22;68700;48.534;9.196;2023-08-01T17:59:08;21.00;99.90
12845;DHT22;68700;48.534;9.196;2023-08-01T18:02:32;20.90;99.90
12845;DHT22;68700;48.534;9.196;2023-08-01T18:06:04;20.90;99.90
12845;DHT22;68700;48.534;9.196;2023-08-01T18:09:26;20.80;99.90
12845;DHT22;68700;48.534;9.196;2023-08-01T18:12:48;20.80;99.90
12845;DHT22;68700;48.534;9.196;2023-08-01T18:16:17;20.60;99.90
12845;DHT22;68700;48.534;9.196;2023-08-01T18:19:39;20.50;99.90
12845;DHT22;68700;48.534;9.196;2023-08-01T18:23:04;20.50;99.90
12845;DHT22;68700;48.534;9.196;2023-08-01T18:26:26;20.40;99.90
12845;DHT22;68700;48.534;9.196;2023-08-01T18:29:50;20.30;99.90
12845;DHT22;68700;48.534;9.196;2023-08-01T18:33:12;20.30;99.90
12845;DHT22;68700;48.534;9.196;2023-08-01T18:36:33;20.10;99.90
12845;DHT22;68700;48.534;9.196;2023-08-01T18:40:01;20.00;99.90
12845;DHT22;68700;48.534;9.196;2023-08-01T18:43:24;19.90;1.00
12845;DHT22;68700;48.534;9.196;2023-08-01T18:46:45;19.70;1.00
12845;DHT22;68700;48.534;9.196;2023-08-01T18:50:09;19.50;1.00
12845;DHT22;68700;48.534;9.196;2023-08-01T18:53:31;19.50;1.00
12845;DHT22;68700;48.534;9.196;2023-08-01T19:01:15;19.10;1.00
12845;DHT22;68700;48.534;9.196;2023-08-01T19:04:37;18.90;1.00
12845;DHT22;68700;48.534;9.196;2023-08-01T19:08:00;18.90;1.00
12845;DHT22;68700;48.534;9.196;2023-08-01T19:11:22;18.80;1.00
12845;DHT22;68700;48.534;9.196;2023-08-01T19:14:44;18.70;1.00
12845;DHT22;68700;48.534;9.196;2023-08-01T19:18:07;18.60;1.00
12845;DHT22;68700;48.534;9.196;2023-08-01T19:21:29;18.50;1.00
12845;DHT22;68700;48.534;9.196;2023-08-01T19:24:51;18.40;1.00
12845;DHT22;68700;48.534;9.196;2023-08-01T19:28:13;18.40;1.00
12845;DHT22;68700;48.534;9.196;2023-08-01T19:31:35;18.40;1.00
12845;DHT22;68700;48.534;9.196;2023-08-01T19:34:58;18.50;1.00
12845;DHT22;68700;48.534;9.196;2023-08-01T19:38:20;18.50;1.00
12845;DHT22;68700;48.534;9.196;2023-08-01T19:41:42;18.50;1.00
12845;DHT22;68700;48.534;9.196;2023-08-01T19:45:18;18.40;1.00
12845;DHT22;68700;48.534;9.196;2023-08-01T19:48:41;18.50;1.00
12845;DHT22;68700;48.534;9.196;2023-08-01T19:52:06;18.50;1.00
12845;DHT22;68700;48.534;9.196;2023-08-01T19:55:28;18.50;1.00
12845;DHT22;68700;48.534;9.196;2023-08-01T19:58:51;18.60;1.00
12845;DHT22;68700;48.534;9.196;2023-08-01T20:02:14;18.60;1.00
12845;DHT22;68700;48.534;9.196;2023-08-01T20:05:35;18.60;1.00
12845;DHT22;68700;48.534;9.196;2023-08-01T20:08:59;18.60;1.00
12845;DHT22;68700;48.534;9.196;2023-08-01T20:12:20;18.60;1.00
12845;DHT22;68700;48.534;9.196;2023-08-01T20:15:42;18.50;1.00
12845;DHT22;68700;48.534;9.196;2023-08-01T20:19:04;18.50;1.00
12845;DHT22;68700;48.534;9.196;2023-08-01T20:22:26;18.40;1.00
12845;DHT22;68700;48.534;9.196;2023-08-01T20:25:50;18.40;1.00
12845;DHT22;68700;48.534;9.196;2023-08-01T20:29:12;18.30;1.00
12845;DHT22;68700;48.534;9.196;2023-08-01T20:32:34;18.30;1.00
12845;DHT22;68700;48.534;9.196;2023-08-01T20:35:56;18.20;1.00
12845;DHT22;68700;48.534;9.196;2023-08-01T20:39:18;18.10;1.00
12845;DHT22;68700;48.534;9.196;2023-08-01T20:42:43;18.10;1.00
12845;DHT22;68700;48.534;9.196;2023-08-01T20:46:05;18.00;1.00
12845;DHT22;68700;48.534;9.196;2023-08-01T20:49:26;18.00;1.00
12845;DHT22;68700;48.534;9.196;2023-08-01T20:52:48;17.80;1.00
12845;DHT22;68700;48.534;9.196;2023-08-01T20:56:10;17.70;1.00
12845;DHT22;68700;48.534;9.196;2023-08-01T20:59:34;17.50;1.00
12845;DHT22;68700;48.534;9.196;2023-08-01T21:02:55;17.30;1.00
12845;DHT22;68700;48.534;9.196;2023-08-01T21:06:18;17.20;1.00
12845;DHT22;68700;48.534;9.196;2023-08-01T21:09:39;17.10;1.00
12845;DHT22;68700;48.534;9.196;2023-08-01T21:13:01;17.00;1.00
12845;DHT22;68700;48.534;9.196;2023-08-01T21:16:24;16.90;1.00
12845;DHT22;68700;48.534;9.196;2023-08-01T21:19:46;16.90;1.00
12845;DHT22;68700;48.534;9.196;2023-08-01T21:23:08;16.90;1.00
12845;DHT22;68700;48.534;9.196;2023-08-01T21:26:30;16.90;1.00
12845;DHT22;68700;48.534;9.196;2023-08-01T21:29:52;16.90;1.00
12845;DHT22;68700;48.534;9.196;2023-08-01T21:33:15;16.80;1.00
12845;DHT22;68700;48.534;9.196;2023-08-01T21:36:37;16.70;1.00
12845;DHT22;68700;48.534;9.196;2023-08-01T21:39:59;16.70;1.00
12845;DHT22;68700;48.534;9.196;2023-08-01T21:43:20;16.60;1.00
12845;DHT22;68700;48.534;9.196;2023-08-01T21:46:42;16.50;1.00